Wylie's Hourly Summary for Sunday, March 19, 2017
Hour Temp
(f)
RH
(%)
Solar Rad.
(MJ/m2)
Rainfall
(in)
Wind
(mph)
3/19/2017 12:00 AM 67 77 0 0 3.76
3/19/2017 1:00 AM 66 81 0 0 3.99
3/19/2017 2:00 AM 65 83 0 0 3.33
3/19/2017 3:00 AM 64 85 0 0 3.18
3/19/2017 4:00 AM 64 85 0 0 3.59
3/19/2017 5:00 AM 63 88 0 0 3.81
3/19/2017 6:00 AM 63 89 0 0 3.94
3/19/2017 7:00 AM 62 93 0 0 4.08
3/19/2017 8:00 AM 61 100 0.04 0 3.8
3/19/2017 9:00 AM 62 99 0.4 0 3.36
3/19/2017 10:00 AM 67 80 1.17 0 4.16
3/19/2017 11:00 AM 70 74 1.73 0 7.07
3/19/2017 12:00 PM 71 70 2.09 0 7.81
3/19/2017 1:00 PM 73 65 2.71 0 9.39
3/19/2017 2:00 PM 75 60 2.59 0 9.84
3/19/2017 3:00 PM 77 57 2.85 0 10.98
3/19/2017 4:00 PM 78 54 2.48 0 11.36
3/19/2017 5:00 PM 79 52 1.95 0 10.87
3/19/2017 6:00 PM 80 51 1.33 0 10.22
3/19/2017 7:00 PM 79 52 0.61 0 9.8
3/19/2017 8:00 PM 76 55 0.06 0 8.29
3/19/2017 9:00 PM 74 61 0 0 7.16
3/19/2017 10:00 PM 72 65 0 0 7.11
3/19/2017 11:00 PM 70 67 0 0 6.77
Data Summary 69 72 20.01 0.00 6.57